Time;durP1;ratioP1;P1;durP2;ratioP2;P2;SDS_P1;SDS_P2;PMS_P1;PMS_P2;Temp;Humidity;BMP_temperature;BMP_pressure;BME280_temperature;BME280_humidity;BME280_pressure;Samples;Min_cycle;Max_cycle;Signal;HPM_P1;HPM_P2
2021/05/16 00:00:36;;;;;;;9.98;8.98;;;11.50;98.00;;;;;;5040617;28;20117;-71
2021/05/16 00:03:03;;;;;;;10.80;9.90;;;11.60;98.00;;;;;;5040343;28;20053;-71
2021/05/16 00:05:30;;;;;;;10.63;9.70;;;11.70;98.00;;;;;;5040460;28;20018;-71
2021/05/16 00:07:57;;;;;;;9.20;8.40;;;11.70;98.00;;;;;;5040488;28;20076;-71
2021/05/16 00:10:24;;;;;;;10.63;8.95;;;11.80;98.00;;;;;;5040090;28;20025;-71
2021/05/16 00:12:51;;;;;;;11.02;9.93;;;11.70;98.00;;;;;;5040156;28;20029;-71
2021/05/16 00:15:19;;;;;;;12.23;11.10;;;11.60;98.00;;;;;;5040011;28;20046;-71
2021/05/16 00:17:45;;;;;;;12.70;11.38;;;11.50;98.00;;;;;;5040053;28;20069;-71
2021/05/16 00:20:18;;;;;;;13.00;11.77;;;11.50;98.00;;;;;;5039986;28;20032;-72
2021/05/16 00:22:44;;;;;;;12.38;11.07;;;11.40;98.00;;;;;;5040279;28;20299;-71
2021/05/16 00:25:17;;;;;;;13.40;12.05;;;11.40;98.00;;;;;;5040218;28;20076;-71
2021/05/16 00:27:44;;;;;;;12.35;11.25;;;11.30;98.00;;;;;;5039786;28;20327;-71
2021/05/16 00:30:12;;;;;;;12.32;11.25;;;11.20;98.00;;;;;;5040068;28;20322;-71
2021/05/16 00:32:38;;;;;;;13.27;12.00;;;11.20;98.00;;;;;;5039939;28;20030;-71
2021/05/16 00:35:08;;;;;;;14.05;12.75;;;11.10;98.00;;;;;;5039985;28;20295;-71
2021/05/16 00:37:34;;;;;;;15.57;12.68;;;11.00;98.00;;;;;;5040008;28;20049;-71
2021/05/16 00:40:00;;;;;;;14.40;12.90;;;10.90;98.00;;;;;;5039690;28;20203;-73
2021/05/16 00:42:26;;;;;;;14.63;13.23;;;10.80;98.00;;;;;;5039608;28;20053;-71
2021/05/16 00:45:01;;;;;;;14.63;13.25;;;10.80;98.00;;;;;;5039745;28;20295;-73
2021/05/16 00:47:27;;;;;;;14.00;12.70;;;10.70;98.00;;;;;;5039802;28;20364;-73
2021/05/16 00:49:54;;;;;;;12.82;11.52;;;10.70;98.00;;;;;;5039742;28;20036;-71
2021/05/16 00:52:21;;;;;;;12.45;11.35;;;10.60;98.00;;;;;;5039325;28;20425;-71
2021/05/16 00:54:47;;;;;;;12.70;10.52;;;10.60;98.00;;;;;;5039422;28;20034;-71
2021/05/16 00:57:13;;;;;;;11.82;10.75;;;10.60;98.00;;;;;;5039599;28;20083;-71
2021/05/16 00:59:39;;;;;;;10.23;9.23;;;10.50;98.00;;;;;;5039280;28;20029;-71
2021/05/16 01:02:04;;;;;;;10.73;9.65;;;10.40;98.00;;;;;;5039249;28;20043;-71
2021/05/16 01:04:30;;;;;;;8.95;8.10;;;10.40;98.00;;;;;;5039404;28;20040;-71
2021/05/16 01:06:56;;;;;;;10.05;8.65;;;10.40;98.00;;;;;;5038786;28;20302;-71
2021/05/16 01:09:25;;;;;;;9.82;8.40;;;10.40;98.00;;;;;;5039091;28;20441;-71
2021/05/16 01:11:52;;;;;;;7.80;7.00;;;10.40;98.00;;;;;;5039291;28;20057;-71
2021/05/16 01:14:31;;;;;;;7.70;6.97;;;10.30;98.00;;;;;;5038930;28;20418;-71
2021/05/16 01:16:57;;;;;;;9.95;7.13;;;10.30;98.00;;;;;;5039294;28;20080;-71
2021/05/16 01:19:22;;;;;;;8.65;6.70;;;10.30;98.00;;;;;;5039245;28;20017;-71
2021/05/16 01:21:50;;;;;;;10.18;6.65;;;10.30;98.00;;;;;;5039240;28;20033;-71
2021/05/16 01:24:18;;;;;;;7.80;7.00;;;10.30;98.00;;;;;;5038692;28;20025;-71
2021/05/16 01:26:45;;;;;;;7.80;6.97;;;10.30;98.00;;;;;;5038588;28;20061;-71
2021/05/16 01:29:12;;;;;;;11.48;7.65;;;10.30;98.00;;;;;;5039033;28;20421;-71
2021/05/16 01:31:38;;;;;;;9.05;8.15;;;10.30;98.00;;;;;;5038572;28;20410;-73
2021/05/16 01:34:04;;;;;;;9.52;8.25;;;10.30;98.00;;;;;;5038889;28;20026;-71
2021/05/16 01:36:30;;;;;;;9.18;8.27;;;10.30;98.00;;;;;;5038903;28;20053;-71
2021/05/16 01:38:56;;;;;;;8.18;7.43;;;10.30;98.00;;;;;;5038827;28;20412;-71
2021/05/16 01:41:22;;;;;;;12.70;8.52;;;10.20;98.00;;;;;;5038442;28;20065;-71
2021/05/16 01:43:50;;;;;;;10.70;9.40;;;10.10;98.00;;;;;;5038432;28;20417;-71
2021/05/16 01:46:16;;;;;;;18.35;11.45;;;10.00;98.00;;;;;;5038415;28;20025;-71
2021/05/16 01:48:42;;;;;;;13.77;12.23;;;9.80;98.00;;;;;;5038639;28;20349;-71
2021/05/16 01:51:08;;;;;;;12.57;11.27;;;9.70;98.00;;;;;;5038485;28;20076;-71
2021/05/16 01:53:35;;;;;;;13.73;12.40;;;9.80;98.00;;;;;;5038602;28;20429;-71
2021/05/16 01:56:02;;;;;;;13.80;12.40;;;9.80;98.00;;;;;;5038576;28;20030;-71
2021/05/16 01:58:28;;;;;;;14.25;12.88;;;9.80;98.00;;;;;;5038466;28;20028;-71
2021/05/16 02:00:55;;;;;;;16.83;12.35;;;9.80;98.00;;;;;;5038424;28;20338;-71
2021/05/16 02:03:21;;;;;;;14.13;11.00;;;9.80;98.00;;;;;;5038398;28;20025;-71
2021/05/16 02:05:51;;;;;;;5.82;4.63;;;9.90;98.00;;;;;;5038260;28;20373;-71
2021/05/16 02:08:19;;;;;;;4.88;3.15;;;9.90;98.00;;;;;;5038260;28;20080;-71
2021/05/16 02:10:45;;;;;;;3.85;3.30;;;10.00;96.80;;;;;;5037854;28;20095;-71
2021/05/16 02:13:10;;;;;;;4.97;3.75;;;10.00;96.20;;;;;;5038237;28;20377;-71
2021/05/16 02:15:36;;;;;;;9.10;5.18;;;10.00;96.10;;;;;;5037758;28;20029;-71
2021/05/16 02:18:03;;;;;;;6.22;5.63;;;10.10;96.80;;;;;;5036815;28;20108;-71
2021/05/16 02:20:29;;;;;;;7.75;5.78;;;10.10;97.10;;;;;;5037711;28;20037;-71
2021/05/16 02:22:55;;;;;;;10.27;5.38;;;10.10;97.00;;;;;;5037987;28;20021;-71
2021/05/16 02:25:21;;;;;;;10.00;6.53;;;10.00;97.10;;;;;;5037786;28;20061;-71
2021/05/16 02:27:47;;;;;;;6.40;5.50;;;10.00;97.70;;;;;;5037441;28;20072;-71
2021/05/16 02:30:14;;;;;;;7.07;6.15;;;10.00;97.30;;;;;;5037547;28;20035;-71
2021/05/16 02:32:40;;;;;;;7.32;6.63;;;10.00;97.10;;;;;;5037406;28;20040;-73
2021/05/16 02:35:09;;;;;;;7.30;6.13;;;10.00;97.30;;;;;;5037710;28;20025;-71
2021/05/16 02:37:35;;;;;;;10.40;7.03;;;10.00;97.30;;;;;;5037415;28;20036;-71
2021/05/16 02:40:01;;;;;;;7.80;7.03;;;10.00;97.20;;;;;;5037609;28;20021;-73
2021/05/16 02:42:26;;;;;;;9.45;7.55;;;10.00;97.30;;;;;;5037689;28;20040;-71
2021/05/16 02:44:52;;;;;;;8.98;8.02;;;10.00;97.70;;;;;;5037499;28;20021;-71
2021/05/16 02:47:18;;;;;;;7.95;7.25;;;10.00;97.40;;;;;;5037567;28;20321;-71
2021/05/16 02:49:43;;;;;;;8.68;7.35;;;9.90;97.90;;;;;;5037550;28;20021;-71
2021/05/16 02:52:10;;;;;;;9.10;7.20;;;10.00;97.60;;;;;;5037449;28;20405;-71
2021/05/16 02:54:36;;;;;;;7.60;6.90;;;10.00;97.90;;;;;;5036991;28;20052;-71
2021/05/16 02:57:01;;;;;;;9.52;7.68;;;10.00;98.00;;;;;;5037414;28;20037;-71
2021/05/16 02:59:28;;;;;;;11.30;7.93;;;9.90;98.00;;;;;;5037086;28;20060;-71
2021/05/16 03:01:54;;;;;;;9.65;7.93;;;9.90;98.00;;;;;;5037025;28;20033;-71
2021/05/16 03:04:20;;;;;;;8.23;7.50;;;10.00;98.00;;;;;;5036972;28;20033;-71
2021/05/16 03:06:47;;;;;;;13.88;8.82;;;9.90;98.00;;;;;;5036947;28;20083;-71
2021/05/16 03:09:12;;;;;;;8.23;7.43;;;9.90;98.00;;;;;;5036880;28;20448;-71
2021/05/16 03:11:38;;;;;;;10.95;9.90;;;9.80;98.00;;;;;;5037109;28;20025;-71
2021/05/16 03:14:04;;;;;;;10.48;9.38;;;9.80;98.00;;;;;;5036792;28;20026;-71
2021/05/16 03:16:29;;;;;;;9.38;8.38;;;9.90;98.00;;;;;;5037130;28;20049;-71
2021/05/16 03:18:55;;;;;;;11.27;10.18;;;9.90;98.00;;;;;;5037120;28;20327;-71
2021/05/16 03:21:21;;;;;;;13.52;11.77;;;9.80;98.00;;;;;;5037029;28;20109;-71
2021/05/16 03:23:47;;;;;;;14.55;11.52;;;9.80;98.00;;;;;;5036705;28;20048;-71
2021/05/16 03:26:13;;;;;;;13.00;11.70;;;9.80;98.00;;;;;;5036948;28;20045;-71
2021/05/16 03:28:38;;;;;;;14.23;12.82;;;9.80;98.00;;;;;;5036687;28;20053;-71
2021/05/16 03:31:04;;;;;;;14.05;12.65;;;9.70;98.00;;;;;;5036835;28;20083;-73
2021/05/16 03:33:30;;;;;;;13.75;11.65;;;9.70;98.00;;;;;;5036684;28;20099;-73
2021/05/16 03:35:56;;;;;;;11.77;10.68;;;9.80;98.00;;;;;;5036811;28;20060;-71
2021/05/16 03:38:22;;;;;;;11.00;9.27;;;9.80;98.00;;;;;;5036862;28;20409;-71
2021/05/16 03:40:48;;;;;;;9.95;8.65;;;9.80;98.00;;;;;;5036797;28;20381;-73
2021/05/16 03:43:14;;;;;;;10.75;8.70;;;9.90;98.00;;;;;;5036873;28;20030;-71
2021/05/16 03:45:40;;;;;;;8.82;7.88;;;9.80;98.00;;;;;;5036415;28;20432;-71
2021/05/16 03:48:06;;;;;;;9.02;8.07;;;9.80;98.00;;;;;;5036796;28;20026;-71
2021/05/16 03:50:31;;;;;;;8.32;7.50;;;9.80;98.00;;;;;;5036350;28;20045;-71
2021/05/16 03:52:57;;;;;;;8.32;7.53;;;9.80;98.00;;;;;;5036762;28;20018;-71
2021/05/16 03:55:23;;;;;;;9.40;8.50;;;9.70;98.00;;;;;;5036800;28;20066;-72
2021/05/16 03:57:50;;;;;;;11.20;8.77;;;9.70;98.00;;;;;;5036715;28;20101;-71
2021/05/16 04:00:17;;;;;;;8.85;7.95;;;9.70;98.00;;;;;;5036596;28;20349;-72
2021/05/16 04:02:43;;;;;;;8.30;7.40;;;9.70;98.00;;;;;;5036671;28;20318;-71
2021/05/16 04:05:10;;;;;;;8.95;8.02;;;9.60;98.00;;;;;;5036265;28;20033;-71
2021/05/16 04:07:35;;;;;;;9.43;7.03;;;9.60;98.00;;;;;;5036616;28;20025;-71
2021/05/16 04:10:01;;;;;;;9.45;7.60;;;9.60;98.00;;;;;;5036257;28;20029;-71
2021/05/16 04:12:27;;;;;;;7.47;6.68;;;9.60;98.00;;;;;;5036522;28;20028;-71
2021/05/16 04:14:53;;;;;;;10.00;7.78;;;9.50;98.00;;;;;;5036518;28;20049;-71
2021/05/16 04:17:19;;;;;;;8.40;7.43;;;9.50;98.00;;;;;;5036489;28;20418;-71
2021/05/16 04:19:45;;;;;;;8.23;7.43;;;9.50;98.00;;;;;;5036201;28;20017;-71
2021/05/16 04:22:11;;;;;;;8.90;7.35;;;9.60;98.00;;;;;;5036150;28;20026;-71
2021/05/16 04:24:37;;;;;;;8.20;7.40;;;9.60;98.00;;;;;;5036398;28;20036;-71
2021/05/16 04:27:03;;;;;;;8.48;7.60;;;9.60;98.00;;;;;;5035947;28;20346;-71
2021/05/16 04:29:28;;;;;;;8.77;6.95;;;9.70;98.00;;;;;;5036076;28;20033;-71
2021/05/16 04:31:54;;;;;;;8.45;7.63;;;9.70;98.00;;;;;;5036337;28;20017;-71
2021/05/16 04:34:20;;;;;;;9.63;8.32;;;9.80;98.00;;;;;;5036044;28;20053;-71
2021/05/16 04:36:45;;;;;;;7.90;7.10;;;9.80;98.00;;;;;;5036005;28;20029;-71
2021/05/16 04:39:11;;;;;;;9.63;6.82;;;9.90;98.00;;;;;;5036380;28;20053;-73
2021/05/16 04:41:37;;;;;;;7.55;6.85;;;9.90;98.00;;;;;;5038482;28;20033;-71
2021/05/16 04:44:03;;;;;;;8.68;7.88;;;10.00;98.00;;;;;;5039831;28;20052;-71
2021/05/16 04:46:29;;;;;;;9.07;8.18;;;10.00;98.00;;;;;;5039510;28;20037;-71
2021/05/16 04:48:55;;;;;;;9.07;7.47;;;10.10;98.00;;;;;;5039780;28;20029;-71
2021/05/16 04:51:21;;;;;;;8.35;7.40;;;10.20;98.00;;;;;;5039697;28;20067;-71
2021/05/16 04:53:46;;;;;;;13.20;8.60;;;10.30;98.00;;;;;;5039384;28;20021;-71
2021/05/16 04:56:12;;;;;;;11.85;8.15;;;10.40;98.00;;;;;;5039881;28;20116;-71
2021/05/16 04:58:38;;;;;;;12.43;10.35;;;10.50;98.00;;;;;;5039640;28;20079;-71
2021/05/16 05:01:05;;;;;;;10.25;9.32;;;10.70;98.00;;;;;;5039266;28;20322;-71
2021/05/16 05:03:31;;;;;;;11.43;10.27;;;10.90;98.00;;;;;;5039579;28;20056;-71
2021/05/16 05:05:57;;;;;;;10.15;9.05;;;10.90;98.00;;;;;;5039397;28;20033;-71
2021/05/16 05:08:25;;;;;;;9.70;8.73;;;11.00;98.00;;;;;;5039159;28;20318;-71
2021/05/16 05:10:50;;;;;;;9.85;8.60;;;11.10;98.00;;;;;;5037967;28;20029;-71
2021/05/16 05:13:16;;;;;;;11.00;8.80;;;11.10;98.00;;;;;;5039383;28;20313;-71
2021/05/16 05:15:42;;;;;;;8.65;7.80;;;11.30;98.00;;;;;;5038907;28;20402;-71
2021/05/16 05:18:08;;;;;;;11.63;8.15;;;11.40;98.00;;;;;;5038966;28;20022;-71
2021/05/16 05:20:35;;;;;;;9.48;8.15;;;11.40;98.00;;;;;;5038903;28;20033;-71
2021/05/16 05:23:00;;;;;;;7.80;7.00;;;11.40;98.00;;;;;;5038910;28;20452;-71
2021/05/16 05:25:30;;;;;;;11.38;8.23;;;11.40;98.00;;;;;;5039283;28;20026;-71
2021/05/16 05:27:56;;;;;;;10.13;7.57;;;11.50;98.00;;;;;;5038635;28;20121;-71
2021/05/16 05:30:23;;;;;;;9.23;7.72;;;11.50;97.70;;;;;;5038968;28;20025;-71
2021/05/16 05:32:49;;;;;;;9.02;7.85;;;11.70;97.80;;;;;;5038959;28;20144;-73
2021/05/16 05:35:16;;;;;;;10.75;8.27;;;11.80;97.00;;;;;;5038829;28;20469;-73
2021/05/16 05:37:42;;;;;;;8.02;7.22;;;11.80;97.30;;;;;;5038909;28;20025;-73
2021/05/16 05:40:08;;;;;;;6.78;6.07;;;11.90;96.90;;;;;;5038844;28;20057;-71
2021/05/16 05:42:34;;;;;;;10.73;6.50;;;11.90;96.40;;;;;;5038838;28;20021;-71
2021/05/16 05:45:00;;;;;;;7.63;6.82;;;12.00;95.40;;;;;;5038686;28;20484;-71
2021/05/16 05:47:26;;;;;;;7.55;6.80;;;12.00;96.80;;;;;;5038403;28;20326;-71
2021/05/16 05:49:53;;;;;;;6.30;5.45;;;12.20;97.60;;;;;;5038649;28;20033;-71
2021/05/16 05:52:19;;;;;;;7.00;4.70;;;12.30;97.20;;;;;;5038085;28;20057;-71
2021/05/16 05:54:44;;;;;;;6.43;4.95;;;12.40;96.00;;;;;;5038295;28;20057;-72
2021/05/16 05:57:10;;;;;;;7.18;5.32;;;12.50;96.10;;;;;;5038533;28;20037;-71
2021/05/16 05:59:36;;;;;;;4.72;4.15;;;12.70;96.70;;;;;;5038175;28;20318;-71
2021/05/16 06:02:03;;;;;;;7.53;4.60;;;12.70;95.10;;;;;;5038450;28;20104;-71
2021/05/16 06:04:29;;;;;;;6.10;4.03;;;12.80;94.90;;;;;;5038342;28;20401;-71
2021/05/16 06:06:55;;;;;;;8.35;4.00;;;12.90;95.30;;;;;;5038026;28;20022;-71
2021/05/16 06:09:20;;;;;;;5.43;4.15;;;13.00;94.00;;;;;;5038245;28;20113;-71
2021/05/16 06:11:46;;;;;;;9.05;4.13;;;13.20;94.90;;;;;;5037893;28;20038;-71
2021/05/16 06:14:12;;;;;;;4.38;3.85;;;13.60;90.70;;;;;;5038138;28;20021;-71
2021/05/16 06:16:37;;;;;;;4.22;3.38;;;14.20;89.20;;;;;;5038178;28;20517;-71
2021/05/16 06:19:03;;;;;;;5.13;3.60;;;15.00;86.90;;;;;;5037869;28;20017;-71
2021/05/16 06:21:30;;;;;;;7.75;3.42;;;15.70;85.70;;;;;;5038032;28;20034;-71
2021/05/16 06:24:10;;;;;;;6.63;3.10;;;16.60;80.60;;;;;;5038001;28;20033;-71
2021/05/16 06:26:39;;;;;;;6.05;2.72;;;17.40;78.80;;;;;;5037652;28;20053;-71
2021/05/16 06:29:06;;;;;;;3.60;2.55;;;18.20;77.50;;;;;;5037906;28;20044;-71
2021/05/16 06:31:32;;;;;;;4.60;3.05;;;18.90;74.10;;;;;;5037820;28;20036;-71
2021/05/16 06:33:58;;;;;;;4.82;3.15;;;19.30;73.40;;;;;;5037490;28;20032;-71
2021/05/16 06:36:24;;;;;;;4.68;2.72;;;19.50;71.00;;;;;;5037466;28;20025;-71
2021/05/16 06:38:49;;;;;;;5.40;2.92;;;19.10;70.70;;;;;;5037448;28;20109;-72
2021/05/16 06:41:15;;;;;;;3.70;2.90;;;19.40;70.30;;;;;;5037386;28;20053;-72
2021/05/16 06:43:42;;;;;;;3.85;2.55;;;19.70;69.70;;;;;;5037723;28;20037;-71
2021/05/16 06:46:07;;;;;;;3.65;2.60;;;20.20;68.40;;;;;;5037565;28;20052;-72
2021/05/16 06:48:35;;;;;;;3.80;2.75;;;20.40;68.70;;;;;;5037598;28;20053;-72
2021/05/16 06:51:02;;;;;;;3.90;2.35;;;20.70;69.10;;;;;;5037405;28;20029;-72
2021/05/16 06:53:28;;;;;;;3.35;2.03;;;21.00;68.90;;;;;;5037546;28;20100;-71
2021/05/16 06:55:54;;;;;;;2.60;2.00;;;21.30;65.70;;;;;;5037536;28;20072;-72
2021/05/16 06:58:19;;;;;;;3.47;2.00;;;21.30;67.50;;;;;;5037103;28;20326;-71
2021/05/16 07:00:45;;;;;;;3.45;1.90;;;21.30;67.50;;;;;;5037309;28;20022;-72
2021/05/16 07:03:11;;;;;;;3.35;1.90;;;21.30;67.30;;;;;;5036784;28;20030;-72
2021/05/16 07:05:37;;;;;;;4.10;1.63;;;21.50;64.00;;;;;;5037222;28;20033;-72
2021/05/16 07:08:03;;;;;;;3.53;1.60;;;21.40;65.90;;;;;;5037227;28;20033;-72
2021/05/16 07:10:29;;;;;;;4.35;2.28;;;21.50;65.90;;;;;;5037213;28;20048;-72
2021/05/16 07:12:54;;;;;;;3.05;1.52;;;21.80;65.80;;;;;;5037166;28;20463;-72
2021/05/16 07:15:20;;;;;;;4.07;1.67;;;21.90;66.00;;;;;;5036803;28;20033;-71
2021/05/16 07:17:48;;;;;;;5.07;1.73;;;22.10;63.20;;;;;;5036779;28;20163;-72
2021/05/16 07:20:14;;;;;;;3.22;2.00;;;22.30;63.50;;;;;;5037050;28;20026;-72
2021/05/16 07:22:40;;;;;;;3.85;1.63;;;22.30;64.00;;;;;;5037093;28;20025;-72
2021/05/16 07:25:06;;;;;;;2.90;1.55;;;22.20;62.10;;;;;;5037017;28;20034;-72
2021/05/16 07:27:32;;;;;;;4.13;1.67;;;22.20;60.90;;;;;;5036602;28;20405;-72
2021/05/16 07:29:58;;;;;;;2.20;1.60;;;21.90;60.60;;;;;;5036921;28;20036;-72
2021/05/16 07:32:24;;;;;;;3.30;1.90;;;21.90;62.70;;;;;;5036533;28;20112;-72
2021/05/16 07:34:49;;;;;;;3.78;2.55;;;22.10;62.70;;;;;;5036516;28;20026;-72
2021/05/16 07:37:15;;;;;;;4.18;2.10;;;21.90;61.80;;;;;;5036584;28;20096;-72
2021/05/16 07:39:41;;;;;;;4.70;3.50;;;21.60;63.30;;;;;;5036526;28;20030;-72
2021/05/16 07:42:07;;;;;;;9.20;4.28;;;21.70;63.00;;;;;;5036859;28;20121;-72
2021/05/16 07:44:33;;;;;;;4.05;3.20;;;21.90;61.30;;;;;;5036469;28;20414;-72
2021/05/16 07:46:59;;;;;;;4.40;3.72;;;21.70;63.70;;;;;;5036834;28;20033;-71
2021/05/16 07:49:25;;;;;;;6.50;4.35;;;21.10;66.80;;;;;;5036467;28;20303;-71
2021/05/16 07:51:50;;;;;;;5.18;3.45;;;20.50;67.90;;;;;;5036432;28;20036;-71
2021/05/16 07:54:16;;;;;;;6.22;4.63;;;19.60;69.50;;;;;;5036607;28;20022;-71
2021/05/16 07:56:42;;;;;;;5.03;4.53;;;18.90;72.80;;;;;;5036419;28;20414;-71
2021/05/16 07:59:07;;;;;;;5.13;4.50;;;18.40;72.70;;;;;;5036665;28;20030;-71
2021/05/16 08:01:33;;;;;;;7.22;3.80;;;17.80;73.80;;;;;;5036366;28;20021;-71
2021/05/16 08:03:59;;;;;;;5.57;3.72;;;17.20;76.10;;;;;;5036664;28;20026;-71
2021/05/16 08:06:25;;;;;;;7.18;4.05;;;17.50;75.80;;;;;;5036355;28;20066;-71
2021/05/16 08:08:51;;;;;;;6.22;4.57;;;18.20;73.30;;;;;;5036580;28;20422;-71
2021/05/16 08:11:16;;;;;;;5.60;4.53;;;18.90;72.00;;;;;;5036195;28;20044;-71
2021/05/16 08:13:42;;;;;;;7.10;4.80;;;19.60;71.50;;;;;;5036607;28;20022;-71
2021/05/16 08:16:08;;;;;;;7.55;4.70;;;20.10;69.70;;;;;;5038073;28;20291;-72
2021/05/16 08:18:34;;;;;;;4.32;3.85;;;20.70;67.60;;;;;;5040414;28;20120;-71
2021/05/16 08:20:59;;;;;;;4.72;3.83;;;21.20;68.40;;;;;;5040317;28;20104;-72
2021/05/16 08:23:25;;;;;;;5.35;3.45;;;20.80;67.50;;;;;;5040357;28;20092;-71
2021/05/16 08:25:51;;;;;;;4.75;4.25;;;20.00;68.90;;;;;;5040315;28;20467;-71
2021/05/16 08:28:17;;;;;;;6.32;4.50;;;19.20;70.20;;;;;;5040305;28;20042;-71
2021/05/16 08:30:43;;;;;;;5.70;4.50;;;18.40;72.70;;;;;;5040056;28;20037;-71
2021/05/16 08:33:09;;;;;;;4.43;3.97;;;18.10;74.10;;;;;;5040184;28;20144;-71
2021/05/16 08:35:36;;;;;;;8.57;4.32;;;18.40;76.60;;;;;;5039744;28;20108;-71
2021/05/16 08:38:02;;;;;;;4.95;3.95;;;18.60;74.90;;;;;;5039742;28;20021;-71
2021/05/16 08:40:28;;;;;;;5.60;4.38;;;18.30;74.70;;;;;;5039713;28;20032;-71
2021/05/16 08:42:54;;;;;;;4.70;3.90;;;18.00;75.50;;;;;;5039932;28;20025;-71
2021/05/16 08:45:20;;;;;;;8.23;4.30;;;17.70;76.70;;;;;;5039644;28;20036;-71
2021/05/16 08:47:46;;;;;;;8.98;4.18;;;17.60;77.20;;;;;;5039848;28;20043;-71
2021/05/16 08:50:15;;;;;;;8.52;5.25;;;17.40;80.30;;;;;;5039456;28;20033;-71
2021/05/16 08:52:41;;;;;;;5.80;4.88;;;17.10;78.30;;;;;;5039717;28;20033;-71
2021/05/16 08:55:09;;;;;;;5.10;4.55;;;16.80;80.80;;;;;;5039483;28;20087;-71
2021/05/16 08:57:34;;;;;;;8.15;5.05;;;16.60;81.10;;;;;;5039654;28;20037;-71
2021/05/16 09:00:11;;;;;;;4.78;4.28;;;16.30;82.20;;;;;;5039637;28;20033;-71
2021/05/16 09:02:59;;;;;;;6.05;5.45;;;16.20;83.70;;;;;;5039650;28;20100;-71
2021/05/16 09:05:36;;;;;;;6.32;4.78;;;16.10;82.30;;;;;;5039094;28;20037;-71
2021/05/16 09:08:05;;;;;;;7.63;5.13;;;16.00;82.80;;;;;;5039560;28;20410;-71
2021/05/16 09:10:31;;;;;;;6.68;4.90;;;16.00;84.00;;;;;;5039086;28;20032;-71
2021/05/16 09:13:16;;;;;;;10.85;6.05;;;15.90;82.10;;;;;;5039340;28;20295;-71
2021/05/16 09:16:10;;;;;;;8.07;5.30;;;15.80;84.00;;;;;;5039178;28;20042;-71
2021/05/16 09:18:43;;;;;;;8.90;5.30;;;16.00;83.20;;;;;;5038008;28;20112;-71
2021/05/16 09:21:20;;;;;;;7.55;4.32;;;16.20;86.20;;;;;;5038968;28;20057;-71
2021/05/16 09:23:49;;;;;;;5.95;3.78;;;16.50;82.20;;;;;;5038879;28;20035;-71
2021/05/16 09:26:15;;;;;;;4.25;3.40;;;16.80;81.80;;;;;;5038012;28;20080;-71
2021/05/16 09:28:41;;;;;;;7.45;4.65;;;16.90;82.10;;;;;;5038766;28;20065;-71
2021/05/16 09:31:08;;;;;;;8.25;5.07;;;17.00;80.40;;;;;;5038961;28;20017;-71
2021/05/16 09:33:34;;;;;;;4.53;3.50;;;17.10;79.90;;;;;;5039035;28;20022;-71
2021/05/16 09:36:08;;;;;;;7.15;3.63;;;17.30;79.30;;;;;;5038590;28;20025;-71
2021/05/16 09:38:34;;;;;;;3.72;3.08;;;17.30;80.80;;;;;;5038929;28;20052;-71
2021/05/16 09:41:00;;;;;;;6.90;3.40;;;17.50;81.40;;;;;;5038552;28;20413;-71
2021/05/16 09:43:30;;;;;;;6.53;3.40;;;17.70;79.00;;;;;;5038878;28;20100;-71
2021/05/16 09:46:07;;;;;;;4.53;2.58;;;18.00;77.60;;;;;;5038389;28;20040;-71
2021/05/16 09:48:38;;;;;;;6.93;2.88;;;18.30;81.40;;;;;;5038729;28;20029;-71
2021/05/16 09:51:16;;;;;;;6.30;2.78;;;18.30;80.90;;;;;;5038284;28;20036;-70
2021/05/16 09:53:55;;;;;;;4.32;2.90;;;18.20;77.30;;;;;;5038661;28;20033;-70
2021/05/16 09:56:24;;;;;;;3.75;3.22;;;18.10;74.40;;;;;;5038810;28;20041;-70
2021/05/16 09:58:51;;;;;;;5.65;2.88;;;18.00;75.50;;;;;;5038256;28;20044;-70
2021/05/16 10:01:18;;;;;;;8.60;2.97;;;18.30;74.70;;;;;;5038412;28;20117;-70
2021/05/16 10:03:46;;;;;;;6.50;3.00;;;18.60;74.10;;;;;;5038103;28;20029;-70
2021/05/16 10:06:12;;;;;;;6.45;2.85;;;18.40;74.20;;;;;;5038037;28;20041;-70
2021/05/16 10:08:39;;;;;;;5.72;2.65;;;18.30;76.90;;;;;;5038014;28;20030;-70
2021/05/16 10:11:05;;;;;;;6.82;2.85;;;18.10;77.80;;;;;;5038233;28;20373;-70
2021/05/16 10:13:34;;;;;;;6.53;2.92;;;17.90;76.40;;;;;;5038333;28;20321;-70
2021/05/16 10:16:01;;;;;;;4.60;2.70;;;17.80;75.60;;;;;;5032576;28;20018;-70
2021/05/16 10:18:28;;;;;;;3.88;2.53;;;17.70;76.40;;;;;;5027039;28;20046;-70
2021/05/16 10:20:57;;;;;;;3.83;2.40;;;17.60;76.80;;;;;;5017947;28;20109;-70
2021/05/16 10:23:31;;;;;;;5.75;2.30;;;17.60;76.60;;;;;;5018293;28;20030;-70
2021/05/16 10:26:21;;;;;;;4.55;1.90;;;17.70;76.20;;;;;;5018043;28;20054;-71
2021/05/16 10:28:59;;;;;;;4.78;2.05;;;18.00;76.80;;;;;;5018268;28;20025;-70
2021/05/16 10:31:46;;;;;;;5.90;1.92;;;18.30;76.40;;;;;;5018051;28;20030;-70
2021/05/16 10:34:30;;;;;;;5.93;2.53;;;19.20;74.20;;;;;;5017768;28;20105;-70
2021/05/16 10:36:57;;;;;;;5.78;2.20;;;20.00;72.20;;;;;;5017782;28;20030;-70
2021/05/16 10:39:38;;;;;;;7.72;2.00;;;20.60;72.50;;;;;;5016882;28;20061;-70
2021/05/16 10:42:11;;;;;;;5.18;1.88;;;20.80;70.70;;;;;;5017857;28;20057;-70
2021/05/16 10:44:40;;;;;;;5.47;1.83;;;20.60;68.90;;;;;;5017854;28;20101;-70
2021/05/16 10:47:07;;;;;;;7.00;2.22;;;20.50;68.60;;;;;;5017859;28;20025;-70
2021/05/16 10:49:33;;;;;;;4.20;1.60;;;20.50;69.70;;;;;;5017806;28;20076;-71
2021/05/16 10:52:28;;;;;;;2.95;1.50;;;20.50;68.90;;;;;;5017754;28;20040;-71
2021/05/16 10:54:53;;;;;;;3.95;1.80;;;20.80;72.10;;;;;;5017524;28;20056;-70
2021/05/16 10:57:24;;;;;;;4.72;1.45;;;21.00;70.00;;;;;;5017705;28;20307;-71
2021/05/16 10:59:50;;;;;;;4.25;1.83;;;20.80;68.70;;;;;;5017364;28;20076;-70
2021/05/16 11:02:53;;;;;;;3.28;1.58;;;20.60;71.20;;;;;;5017381;28;20419;-70
2021/05/16 11:05:41;;;;;;;5.90;1.55;;;20.30;69.20;;;;;;5017438;28;20117;-70
2021/05/16 11:08:08;;;;;;;5.10;1.75;;;19.70;68.40;;;;;;5017564;28;20057;-70
2021/05/16 11:10:34;;;;;;;5.38;1.60;;;19.30;74.00;;;;;;5017128;28;20038;-70
2021/05/16 11:13:06;;;;;;;6.47;2.03;;;19.00;74.40;;;;;;5017402;28;20099;-70
2021/05/16 11:15:32;;;;;;;5.78;1.50;;;18.40;73.60;;;;;;5017031;28;20307;-70
2021/05/16 11:17:58;;;;;;;2.58;1.40;;;18.20;76.50;;;;;;5017367;28;20029;-70
2021/05/16 11:20:24;;;;;;;4.75;1.83;;;18.10;75.30;;;;;;5017360;28;20163;-70
2021/05/16 11:22:49;;;;;;;2.67;1.52;;;18.10;72.00;;;;;;5017421;28;20148;-71
2021/05/16 11:25:25;;;;;;;5.32;1.35;;;18.00;74.20;;;;;;5017282;28;20342;-71
2021/05/16 11:27:51;;;;;;;;;;;17.90;77.90;;;;;;5017236;28;20064;-71
2021/05/16 11:30:21;;;;;;;7.35;1.60;;;17.80;79.20;;;;;;5017317;28;19910;-70
2021/05/16 11:32:47;;;;;;;3.40;2.10;;;17.70;76.50;;;;;;5017167;28;20033;-71
2021/05/16 11:35:21;;;;;;;4.25;1.95;;;17.70;75.80;;;;;;5016837;28;20379;-70
2021/05/16 11:37:51;;;;;;;4.93;1.55;;;17.70;77.30;;;;;;5017306;28;20358;-70
2021/05/16 11:40:33;;;;;;;5.72;2.10;;;17.50;79.80;;;;;;5017160;28;20030;-70
2021/05/16 11:43:05;;;;;;;3.55;2.00;;;17.50;75.90;;;;;;5016824;28;20104;-72
2021/05/16 11:45:34;;;;;;;4.72;1.98;;;17.40;75.00;;;;;;5016722;28;20040;-70
2021/05/16 11:47:59;;;;;;;6.88;3.13;;;17.40;77.80;;;;;;5016805;28;20026;-70
2021/05/16 11:50:43;;;;;;;6.18;2.50;;;17.40;76.60;;;;;;5019172;28;20102;-70
2021/05/16 11:53:10;;;;;;;4.85;2.13;;;17.30;77.90;;;;;;5021130;28;20037;-70
2021/05/16 11:55:36;;;;;;;5.05;2.20;;;17.20;78.50;;;;;;5021073;28;20298;-71
2021/05/16 11:58:03;;;;;;;5.55;2.30;;;17.20;78.40;;;;;;5020694;28;20108;-71
2021/05/16 12:00:30;;;;;;;5.22;2.22;;;17.20;76.60;;;;;;5020961;28;20018;-71
2021/05/16 12:03:08;;;;;;;4.00;2.10;;;17.10;80.60;;;;;;5020924;28;20030;-71
2021/05/16 12:05:34;;;;;;;4.53;2.42;;;17.00;79.90;;;;;;5020566;28;20029;-71
2021/05/16 12:08:11;;;;;;;6.30;2.47;;;16.80;80.10;;;;;;5020555;28;20033;-71
2021/05/16 12:10:37;;;;;;;4.05;2.60;;;16.60;79.40;;;;;;5020833;28;20026;-71
2021/05/16 12:13:02;;;;;;;3.20;2.25;;;16.50;80.00;;;;;;5020424;28;20420;-71
2021/05/16 12:15:28;;;;;;;5.28;2.65;;;16.40;80.70;;;;;;5020654;28;20014;-71
2021/05/16 12:17:54;;;;;;;5.07;2.97;;;16.30;82.80;;;;;;5020646;28;20022;-71
2021/05/16 12:20:24;;;;;;;6.15;2.90;;;16.20;81.90;;;;;;5020599;28;20292;-71
2021/05/16 12:22:50;;;;;;;3.88;2.78;;;16.00;84.80;;;;;;5020326;28;20029;-71
2021/05/16 12:25:16;;;;;;;5.35;2.88;;;15.90;86.80;;;;;;5020272;28;20084;-71
2021/05/16 12:27:41;;;;;;;4.50;2.58;;;15.80;88.20;;;;;;5020047;28;20085;-71
2021/05/16 12:30:08;;;;;;;3.42;2.50;;;15.80;87.50;;;;;;5020411;28;20053;-71
2021/05/16 12:32:34;;;;;;;6.22;3.25;;;15.70;86.60;;;;;;5020016;28;20402;-71
2021/05/16 12:35:00;;;;;;;6.25;3.35;;;15.60;86.10;;;;;;5020016;28;20447;-71
2021/05/16 12:37:29;;;;;;;6.00;2.60;;;15.60;85.90;;;;;;5019979;28;20018;-71
2021/05/16 12:39:57;;;;;;;4.88;3.00;;;15.50;87.40;;;;;;5019962;28;20105;-71
2021/05/16 12:42:39;;;;;;;5.05;2.92;;;15.50;86.40;;;;;;5020260;28;20057;-71
2021/05/16 12:45:18;;;;;;;3.63;2.90;;;15.50;85.70;;;;;;5019823;28;20445;-71
2021/05/16 12:48:06;;;;;;;6.15;3.38;;;15.40;88.20;;;;;;5019800;28;20034;-71